sensor_id;sensor_type;location;lat;lon;timestamp;P1;durP1;ratioP1;P2;durP2;ratioP2
43626;SDS011;29217;52.586;13.442;2024-01-11T00:00:42;18.52;;;7.57;;
43626;SDS011;29217;52.586;13.442;2024-01-11T00:03:07;16.15;;;7.38;;
43626;SDS011;29217;52.586;13.442;2024-01-11T00:05:33;18.52;;;9.85;;
43626;SDS011;29217;52.586;13.442;2024-01-11T00:07:59;11.35;;;6.75;;
43626;SDS011;29217;52.586;13.442;2024-01-11T00:10:24;15.10;;;6.07;;
43626;SDS011;29217;52.586;13.442;2024-01-11T00:12:50;6.65;;;5.15;;
43626;SDS011;29217;52.586;13.442;2024-01-11T00:15:15;8.70;;;5.63;;
43626;SDS011;29217;52.586;13.442;2024-01-11T00:17:41;12.70;;;6.45;;
43626;SDS011;29217;52.586;13.442;2024-01-11T00:20:07;6.72;;;4.55;;
43626;SDS011;29217;52.586;13.442;2024-01-11T00:22:33;9.15;;;6.53;;
43626;SDS011;29217;52.586;13.442;2024-01-11T00:24:58;7.40;;;5.30;;
43626;SDS011;29217;52.586;13.442;2024-01-11T00:27:24;11.45;;;6.30;;
43626;SDS011;29217;52.586;13.442;2024-01-11T00:29:49;5.70;;;4.45;;
43626;SDS011;29217;52.586;13.442;2024-01-11T00:32:15;7.68;;;5.32;;
43626;SDS011;29217;52.586;13.442;2024-01-11T00:34:40;12.68;;;5.55;;
43626;SDS011;29217;52.586;13.442;2024-01-11T00:37:06;15.27;;;5.65;;
43626;SDS011;29217;52.586;13.442;2024-01-11T00:39:32;13.68;;;6.20;;
43626;SDS011;29217;52.586;13.442;2024-01-11T00:41:57;7.88;;;4.43;;
43626;SDS011;29217;52.586;13.442;2024-01-11T00:44:23;11.38;;;4.90;;
43626;SDS011;29217;52.586;13.442;2024-01-11T00:46:48;4.97;;;3.80;;
43626;SDS011;29217;52.586;13.442;2024-01-11T00:49:14;5.07;;;4.32;;
43626;SDS011;29217;52.586;13.442;2024-01-11T00:51:40;10.45;;;5.50;;
43626;SDS011;29217;52.586;13.442;2024-01-11T00:54:05;14.75;;;3.75;;
43626;SDS011;29217;52.586;13.442;2024-01-11T00:56:31;10.52;;;4.38;;
43626;SDS011;29217;52.586;13.442;2024-01-11T00:58:56;6.43;;;5.40;;
43626;SDS011;29217;52.586;13.442;2024-01-11T01:01:22;4.55;;;3.67;;
43626;SDS011;29217;52.586;13.442;2024-01-11T01:03:48;10.68;;;5.32;;
43626;SDS011;29217;52.586;13.442;2024-01-11T01:06:13;9.98;;;5.57;;
43626;SDS011;29217;52.586;13.442;2024-01-11T01:08:39;10.32;;;5.32;;
43626;SDS011;29217;52.586;13.442;2024-01-11T01:11:04;7.43;;;4.00;;
43626;SDS011;29217;52.586;13.442;2024-01-11T01:13:30;7.43;;;3.55;;
43626;SDS011;29217;52.586;13.442;2024-01-11T01:15:56;5.43;;;3.75;;
43626;SDS011;29217;52.586;13.442;2024-01-11T01:18:21;5.80;;;4.03;;
43626;SDS011;29217;52.586;13.442;2024-01-11T01:20:47;7.68;;;4.25;;
43626;SDS011;29217;52.586;13.442;2024-01-11T01:23:12;10.63;;;4.82;;
43626;SDS011;29217;52.586;13.442;2024-01-11T01:25:38;6.05;;;5.03;;
43626;SDS011;29217;52.586;13.442;2024-01-11T01:28:04;6.60;;;4.85;;
43626;SDS011;29217;52.586;13.442;2024-01-11T01:30:29;7.47;;;5.10;;
43626;SDS011;29217;52.586;13.442;2024-01-11T01:32:55;5.40;;;3.95;;
43626;SDS011;29217;52.586;13.442;2024-01-11T01:35:21;7.28;;;4.53;;
43626;SDS011;29217;52.586;13.442;2024-01-11T01:37:47;11.75;;;5.10;;
43626;SDS011;29217;52.586;13.442;2024-01-11T01:40:12;15.90;;;5.68;;
43626;SDS011;29217;52.586;13.442;2024-01-11T01:42:44;6.53;;;3.47;;
43626;SDS011;29217;52.586;13.442;2024-01-11T01:45:11;9.93;;;5.05;;
43626;SDS011;29217;52.586;13.442;2024-01-11T01:47:37;8.18;;;4.43;;
43626;SDS011;29217;52.586;13.442;2024-01-11T01:50:07;6.30;;;4.50;;
43626;SDS011;29217;52.586;13.442;2024-01-11T01:52:34;7.22;;;4.97;;
43626;SDS011;29217;52.586;13.442;2024-01-11T01:55:03;8.00;;;4.65;;
43626;SDS011;29217;52.586;13.442;2024-01-11T01:57:30;7.80;;;4.53;;
43626;SDS011;29217;52.586;13.442;2024-01-11T01:59:58;7.35;;;4.32;;
43626;SDS011;29217;52.586;13.442;2024-01-11T02:02:23;5.28;;;4.53;;
43626;SDS011;29217;52.586;13.442;2024-01-11T02:04:49;5.45;;;4.25;;
43626;SDS011;29217;52.586;13.442;2024-01-11T02:07:15;8.05;;;4.53;;
43626;SDS011;29217;52.586;13.442;2024-01-11T02:09:41;12.40;;;5.32;;
43626;SDS011;29217;52.586;13.442;2024-01-11T02:12:08;13.48;;;5.07;;
43626;SDS011;29217;52.586;13.442;2024-01-11T02:14:37;8.80;;;3.63;;
43626;SDS011;29217;52.586;13.442;2024-01-11T02:17:03;11.32;;;5.43;;
43626;SDS011;29217;52.586;13.442;2024-01-11T02:19:28;9.35;;;3.97;;
43626;SDS011;29217;52.586;13.442;2024-01-11T02:21:54;4.13;;;3.13;;
43626;SDS011;29217;52.586;13.442;2024-01-11T02:24:23;8.23;;;5.07;;
43626;SDS011;29217;52.586;13.442;2024-01-11T02:26:58;11.05;;;5.38;;
43626;SDS011;29217;52.586;13.442;2024-01-11T02:29:27;13.55;;;5.50;;
43626;SDS011;29217;52.586;13.442;2024-01-11T02:31:57;7.05;;;4.82;;
43626;SDS011;29217;52.586;13.442;2024-01-11T02:34:26;8.55;;;4.40;;
43626;SDS011;29217;52.586;13.442;2024-01-11T02:36:52;5.75;;;4.03;;
43626;SDS011;29217;52.586;13.442;2024-01-11T02:39:19;9.85;;;5.15;;
43626;SDS011;29217;52.586;13.442;2024-01-11T02:41:47;11.93;;;5.15;;
43626;SDS011;29217;52.586;13.442;2024-01-11T02:44:14;12.27;;;5.40;;
43626;SDS011;29217;52.586;13.442;2024-01-11T02:46:40;22.27;;;7.10;;
43626;SDS011;29217;52.586;13.442;2024-01-11T02:49:05;10.85;;;5.55;;
43626;SDS011;29217;52.586;13.442;2024-01-11T02:51:31;14.68;;;6.20;;
43626;SDS011;29217;52.586;13.442;2024-01-11T02:53:57;10.98;;;4.53;;
43626;SDS011;29217;52.586;13.442;2024-01-11T02:56:23;8.60;;;3.90;;
43626;SDS011;29217;52.586;13.442;2024-01-11T02:58:49;9.40;;;4.15;;
43626;SDS011;29217;52.586;13.442;2024-01-11T03:01:14;10.68;;;5.38;;
43626;SDS011;29217;52.586;13.442;2024-01-11T03:03:40;5.75;;;4.32;;
43626;SDS011;29217;52.586;13.442;2024-01-11T03:06:05;11.88;;;5.45;;
43626;SDS011;29217;52.586;13.442;2024-01-11T03:08:31;6.28;;;4.18;;
43626;SDS011;29217;52.586;13.442;2024-01-11T03:10:57;5.70;;;3.60;;
43626;SDS011;29217;52.586;13.442;2024-01-11T03:13:22;9.48;;;4.00;;
43626;SDS011;29217;52.586;13.442;2024-01-11T03:15:48;13.13;;;4.63;;
43626;SDS011;29217;52.586;13.442;2024-01-11T03:18:14;8.63;;;4.35;;
43626;SDS011;29217;52.586;13.442;2024-01-11T03:20:39;7.45;;;5.07;;
43626;SDS011;29217;52.586;13.442;2024-01-11T03:23:05;12.88;;;4.15;;
43626;SDS011;29217;52.586;13.442;2024-01-11T03:25:31;13.82;;;4.50;;
43626;SDS011;29217;52.586;13.442;2024-01-11T03:27:57;8.13;;;4.18;;
43626;SDS011;29217;52.586;13.442;2024-01-11T03:30:24;10.40;;;4.65;;
43626;SDS011;29217;52.586;13.442;2024-01-11T03:32:49;12.40;;;4.93;;
43626;SDS011;29217;52.586;13.442;2024-01-11T03:35:15;7.65;;;4.53;;
43626;SDS011;29217;52.586;13.442;2024-01-11T03:37:41;15.73;;;6.07;;
43626;SDS011;29217;52.586;13.442;2024-01-11T03:40:06;12.88;;;4.55;;
43626;SDS011;29217;52.586;13.442;2024-01-11T03:42:32;11.65;;;5.53;;
43626;SDS011;29217;52.586;13.442;2024-01-11T03:44:58;11.90;;;5.18;;
43626;SDS011;29217;52.586;13.442;2024-01-11T03:47:23;8.68;;;4.70;;
43626;SDS011;29217;52.586;13.442;2024-01-11T03:49:49;16.98;;;5.95;;
43626;SDS011;29217;52.586;13.442;2024-01-11T03:52:14;10.27;;;4.72;;
43626;SDS011;29217;52.586;13.442;2024-01-11T03:54:40;13.15;;;6.25;;
43626;SDS011;29217;52.586;13.442;2024-01-11T03:57:05;11.52;;;4.60;;
43626;SDS011;29217;52.586;13.442;2024-01-11T03:59:31;16.08;;;5.72;;
43626;SDS011;29217;52.586;13.442;2024-01-11T04:01:57;10.75;;;5.05;;
43626;SDS011;29217;52.586;13.442;2024-01-11T04:04:24;8.52;;;5.35;;
43626;SDS011;29217;52.586;13.442;2024-01-11T04:06:50;11.70;;;5.57;;
43626;SDS011;29217;52.586;13.442;2024-01-11T04:09:17;8.55;;;5.32;;
43626;SDS011;29217;52.586;13.442;2024-01-11T04:11:43;9.50;;;4.82;;
43626;SDS011;29217;52.586;13.442;2024-01-11T04:14:08;11.88;;;4.80;;
43626;SDS011;29217;52.586;13.442;2024-01-11T04:16:39;16.52;;;5.93;;
43626;SDS011;29217;52.586;13.442;2024-01-11T04:19:05;9.38;;;6.07;;
43626;SDS011;29217;52.586;13.442;2024-01-11T04:21:31;11.07;;;4.75;;
43626;SDS011;29217;52.586;13.442;2024-01-11T04:23:56;8.25;;;4.95;;
43626;SDS011;29217;52.586;13.442;2024-01-11T04:26:22;12.20;;;5.00;;
43626;SDS011;29217;52.586;13.442;2024-01-11T04:28:48;10.43;;;4.72;;
43626;SDS011;29217;52.586;13.442;2024-01-11T04:31:15;11.77;;;5.13;;
43626;SDS011;29217;52.586;13.442;2024-01-11T04:33:42;14.13;;;6.35;;
43626;SDS011;29217;52.586;13.442;2024-01-11T04:36:08;8.10;;;4.20;;
43626;SDS011;29217;52.586;13.442;2024-01-11T04:38:35;7.80;;;4.95;;
43626;SDS011;29217;52.586;13.442;2024-01-11T04:41:02;13.27;;;5.57;;
43626;SDS011;29217;52.586;13.442;2024-01-11T04:43:32;15.95;;;5.80;;
43626;SDS011;29217;52.586;13.442;2024-01-11T04:45:57;12.48;;;4.95;;
43626;SDS011;29217;52.586;13.442;2024-01-11T04:48:23;6.13;;;3.83;;
43626;SDS011;29217;52.586;13.442;2024-01-11T04:50:49;8.68;;;5.28;;
43626;SDS011;29217;52.586;13.442;2024-01-11T04:53:14;16.25;;;5.32;;
43626;SDS011;29217;52.586;13.442;2024-01-11T04:55:40;15.80;;;4.93;;
43626;SDS011;29217;52.586;13.442;2024-01-11T04:58:06;15.80;;;6.28;;
43626;SDS011;29217;52.586;13.442;2024-01-11T05:00:31;16.90;;;5.82;;
43626;SDS011;29217;52.586;13.442;2024-01-11T05:02:57;16.00;;;5.70;;
43626;SDS011;29217;52.586;13.442;2024-01-11T05:05:22;13.77;;;5.25;;
43626;SDS011;29217;52.586;13.442;2024-01-11T05:07:48;16.70;;;6.50;;
43626;SDS011;29217;52.586;13.442;2024-01-11T05:10:13;13.10;;;5.15;;
43626;SDS011;29217;52.586;13.442;2024-01-11T05:12:39;15.63;;;5.65;;
43626;SDS011;29217;52.586;13.442;2024-01-11T05:15:05;22.13;;;5.93;;
43626;SDS011;29217;52.586;13.442;2024-01-11T05:17:33;18.50;;;6.20;;
43626;SDS011;29217;52.586;13.442;2024-01-11T05:19:59;18.63;;;5.70;;
43626;SDS011;29217;52.586;13.442;2024-01-11T05:22:24;18.20;;;4.82;;
43626;SDS011;29217;52.586;13.442;2024-01-11T05:24:50;15.55;;;4.97;;
43626;SDS011;29217;52.586;13.442;2024-01-11T05:27:15;22.92;;;5.32;;
43626;SDS011;29217;52.586;13.442;2024-01-11T05:29:41;13.55;;;5.07;;
43626;SDS011;29217;52.586;13.442;2024-01-11T05:32:06;15.25;;;4.97;;
43626;SDS011;29217;52.586;13.442;2024-01-11T05:34:32;15.93;;;4.95;;
43626;SDS011;29217;52.586;13.442;2024-01-11T05:36:58;15.32;;;5.93;;
43626;SDS011;29217;52.586;13.442;2024-01-11T05:39:23;16.52;;;5.97;;
43626;SDS011;29217;52.586;13.442;2024-01-11T05:41:49;19.17;;;7.03;;
43626;SDS011;29217;52.586;13.442;2024-01-11T05:44:14;13.98;;;5.78;;
43626;SDS011;29217;52.586;13.442;2024-01-11T05:46:40;13.88;;;6.50;;
43626;SDS011;29217;52.586;13.442;2024-01-11T05:49:05;14.13;;;5.18;;
43626;SDS011;29217;52.586;13.442;2024-01-11T05:51:32;21.23;;;6.65;;
43626;SDS011;29217;52.586;13.442;2024-01-11T05:53:58;20.73;;;5.75;;
43626;SDS011;29217;52.586;13.442;2024-01-11T05:56:23;15.73;;;5.85;;
43626;SDS011;29217;52.586;13.442;2024-01-11T05:58:49;22.05;;;6.88;;
43626;SDS011;29217;52.586;13.442;2024-01-11T06:01:14;25.13;;;8.18;;
43626;SDS011;29217;52.586;13.442;2024-01-11T06:03:40;20.45;;;6.60;;
43626;SDS011;29217;52.586;13.442;2024-01-11T06:06:06;27.65;;;6.90;;
43626;SDS011;29217;52.586;13.442;2024-01-11T06:08:32;16.23;;;5.88;;
43626;SDS011;29217;52.586;13.442;2024-01-11T06:10:57;16.65;;;6.45;;
43626;SDS011;29217;52.586;13.442;2024-01-11T06:13:23;18.15;;;6.93;;
43626;SDS011;29217;52.586;13.442;2024-01-11T06:15:49;10.75;;;5.20;;
43626;SDS011;29217;52.586;13.442;2024-01-11T06:18:15;22.38;;;7.22;;
43626;SDS011;29217;52.586;13.442;2024-01-11T06:20:41;21.52;;;6.60;;
43626;SDS011;29217;52.586;13.442;2024-01-11T06:23:06;22.27;;;8.18;;
43626;SDS011;29217;52.586;13.442;2024-01-11T06:25:32;17.10;;;7.60;;
43626;SDS011;29217;52.586;13.442;2024-01-11T06:27:57;15.27;;;6.38;;
43626;SDS011;29217;52.586;13.442;2024-01-11T06:30:23;18.42;;;7.15;;
43626;SDS011;29217;52.586;13.442;2024-01-11T06:32:48;20.40;;;7.13;;
43626;SDS011;29217;52.586;13.442;2024-01-11T06:35:14;21.70;;;8.98;;
43626;SDS011;29217;52.586;13.442;2024-01-11T06:37:40;16.55;;;6.50;;
43626;SDS011;29217;52.586;13.442;2024-01-11T06:40:05;22.10;;;9.05;;
43626;SDS011;29217;52.586;13.442;2024-01-11T06:42:33;19.13;;;7.40;;
43626;SDS011;29217;52.586;13.442;2024-01-11T06:44:59;22.08;;;6.47;;
43626;SDS011;29217;52.586;13.442;2024-01-11T06:47:25;26.00;;;9.60;;
43626;SDS011;29217;52.586;13.442;2024-01-11T06:49:50;19.55;;;8.15;;
43626;SDS011;29217;52.586;13.442;2024-01-11T06:52:16;23.27;;;7.82;;
43626;SDS011;29217;52.586;13.442;2024-01-11T06:54:41;21.08;;;7.25;;
43626;SDS011;29217;52.586;13.442;2024-01-11T06:57:07;21.05;;;7.20;;
43626;SDS011;29217;52.586;13.442;2024-01-11T06:59:33;21.83;;;8.32;;
43626;SDS011;29217;52.586;13.442;2024-01-11T07:01:58;16.35;;;6.05;;
43626;SDS011;29217;52.586;13.442;2024-01-11T07:04:24;22.92;;;7.35;;
43626;SDS011;29217;52.586;13.442;2024-01-11T07:06:50;26.48;;;7.78;;
43626;SDS011;29217;52.586;13.442;2024-01-11T07:09:15;15.18;;;6.63;;
43626;SDS011;29217;52.586;13.442;2024-01-11T07:11:42;21.35;;;7.55;;
43626;SDS011;29217;52.586;13.442;2024-01-11T07:14:08;22.45;;;7.70;;
43626;SDS011;29217;52.586;13.442;2024-01-11T07:16:35;30.00;;;8.65;;
43626;SDS011;29217;52.586;13.442;2024-01-11T07:19:01;24.45;;;7.35;;
43626;SDS011;29217;52.586;13.442;2024-01-11T07:21:26;20.92;;;8.23;;
43626;SDS011;29217;52.586;13.442;2024-01-11T07:23:56;19.50;;;7.38;;
43626;SDS011;29217;52.586;13.442;2024-01-11T07:26:22;30.83;;;8.02;;
43626;SDS011;29217;52.586;13.442;2024-01-11T07:28:49;15.98;;;7.03;;
43626;SDS011;29217;52.586;13.442;2024-01-11T07:31:14;25.95;;;8.15;;
43626;SDS011;29217;52.586;13.442;2024-01-11T07:33:40;20.30;;;7.25;;
43626;SDS011;29217;52.586;13.442;2024-01-11T07:36:06;28.60;;;8.35;;
43626;SDS011;29217;52.586;13.442;2024-01-11T07:38:32;30.92;;;8.73;;
43626;SDS011;29217;52.586;13.442;2024-01-11T07:40:57;24.17;;;8.75;;
43626;SDS011;29217;52.586;13.442;2024-01-11T07:43:23;29.48;;;8.30;;
43626;SDS011;29217;52.586;13.442;2024-01-11T07:45:49;24.08;;;7.90;;
43626;SDS011;29217;52.586;13.442;2024-01-11T07:48:15;27.08;;;8.88;;
43626;SDS011;29217;52.586;13.442;2024-01-11T07:50:40;34.60;;;9.48;;
43626;SDS011;29217;52.586;13.442;2024-01-11T07:53:07;28.27;;;7.70;;
43626;SDS011;29217;52.586;13.442;2024-01-11T07:55:33;24.08;;;8.18;;
43626;SDS011;29217;52.586;13.442;2024-01-11T07:57:58;37.33;;;10.10;;
43626;SDS011;29217;52.586;13.442;2024-01-11T08:00:24;25.10;;;8.70;;
43626;SDS011;29217;52.586;13.442;2024-01-11T08:02:50;25.33;;;8.68;;
43626;SDS011;29217;52.586;13.442;2024-01-11T08:05:16;27.35;;;8.73;;
43626;SDS011;29217;52.586;13.442;2024-01-11T08:07:41;22.52;;;8.30;;
43626;SDS011;29217;52.586;13.442;2024-01-11T08:10:07;31.70;;;9.77;;
43626;SDS011;29217;52.586;13.442;2024-01-11T08:12:34;33.38;;;10.93;;
43626;SDS011;29217;52.586;13.442;2024-01-11T08:15:00;20.40;;;7.75;;
43626;SDS011;29217;52.586;13.442;2024-01-11T08:17:26;26.38;;;8.40;;
43626;SDS011;29217;52.586;13.442;2024-01-11T08:19:51;17.23;;;7.30;;
43626;SDS011;29217;52.586;13.442;2024-01-11T08:22:17;26.83;;;8.20;;
43626;SDS011;29217;52.586;13.442;2024-01-11T08:24:42;22.95;;;8.10;;
43626;SDS011;29217;52.586;13.442;2024-01-11T08:27:08;19.65;;;8.20;;
43626;SDS011;29217;52.586;13.442;2024-01-11T08:29:34;34.60;;;10.00;;
43626;SDS011;29217;52.586;13.442;2024-01-11T08:32:00;37.17;;;8.93;;
43626;SDS011;29217;52.586;13.442;2024-01-11T08:34:29;28.63;;;9.13;;
43626;SDS011;29217;52.586;13.442;2024-01-11T08:36:55;32.80;;;9.13;;
43626;SDS011;29217;52.586;13.442;2024-01-11T08:39:20;34.15;;;8.93;;
43626;SDS011;29217;52.586;13.442;2024-01-11T08:41:46;19.85;;;8.07;;
43626;SDS011;29217;52.586;13.442;2024-01-11T08:44:12;26.55;;;9.32;;
43626;SDS011;29217;52.586;13.442;2024-01-11T08:46:38;23.40;;;8.80;;
43626;SDS011;29217;52.586;13.442;2024-01-11T08:49:04;24.35;;;7.63;;
43626;SDS011;29217;52.586;13.442;2024-01-11T08:51:30;18.65;;;7.90;;
43626;SDS011;29217;52.586;13.442;2024-01-11T08:53:57;29.15;;;8.57;;
43626;SDS011;29217;52.586;13.442;2024-01-11T08:56:23;25.15;;;9.13;;
43626;SDS011;29217;52.586;13.442;2024-01-11T08:58:48;30.80;;;9.18;;
43626;SDS011;29217;52.586;13.442;2024-01-11T09:01:15;26.35;;;8.48;;
43626;SDS011;29217;52.586;13.442;2024-01-11T09:03:40;31.40;;;9.43;;
43626;SDS011;29217;52.586;13.442;2024-01-11T09:06:06;24.23;;;8.50;;
43626;SDS011;29217;52.586;13.442;2024-01-11T09:08:32;25.42;;;9.40;;
43626;SDS011;29217;52.586;13.442;2024-01-11T09:10:58;25.60;;;10.23;;
43626;SDS011;29217;52.586;13.442;2024-01-11T09:13:24;35.65;;;8.85;;
43626;SDS011;29217;52.586;13.442;2024-01-11T09:15:53;32.53;;;9.05;;
43626;SDS011;29217;52.586;13.442;2024-01-11T09:18:19;20.05;;;6.57;;
43626;SDS011;29217;52.586;13.442;2024-01-11T09:20:45;22.33;;;7.40;;
43626;SDS011;29217;52.586;13.442;2024-01-11T09:23:12;25.60;;;7.70;;
43626;SDS011;29217;52.586;13.442;2024-01-11T09:25:38;27.48;;;8.90;;
43626;SDS011;29217;52.586;13.442;2024-01-11T09:28:03;15.40;;;7.50;;
43626;SDS011;29217;52.586;13.442;2024-01-11T09:30:29;25.27;;;9.90;;
43626;SDS011;29217;52.586;13.442;2024-01-11T09:32:55;25.20;;;9.27;;
43626;SDS011;29217;52.586;13.442;2024-01-11T09:35:21;28.15;;;8.48;;
43626;SDS011;29217;52.586;13.442;2024-01-11T09:37:48;28.27;;;9.35;;
43626;SDS011;29217;52.586;13.442;2024-01-11T09:40:14;20.60;;;7.40;;
43626;SDS011;29217;52.586;13.442;2024-01-11T09:42:41;20.38;;;8.25;;
43626;SDS011;29217;52.586;13.442;2024-01-11T09:45:07;28.30;;;8.55;;
43626;SDS011;29217;52.586;13.442;2024-01-11T09:47:34;24.23;;;8.23;;
43626;SDS011;29217;52.586;13.442;2024-01-11T09:50:02;25.75;;;7.75;;
43626;SDS011;29217;52.586;13.442;2024-01-11T09:52:28;15.70;;;6.32;;
43626;SDS011;29217;52.586;13.442;2024-01-11T09:54:57;27.05;;;9.50;;
43626;SDS011;29217;52.586;13.442;2024-01-11T09:57:28;20.70;;;8.32;;
43626;SDS011;29217;52.586;13.442;2024-01-11T09:59:57;22.52;;;8.63;;
43626;SDS011;29217;52.586;13.442;2024-01-11T10:02:24;15.93;;;6.65;;
43626;SDS011;29217;52.586;13.442;2024-01-11T10:04:51;19.10;;;6.85;;
43626;SDS011;29217;52.586;13.442;2024-01-11T10:07:18;15.35;;;6.28;;
43626;SDS011;29217;52.586;13.442;2024-01-11T10:09:46;17.20;;;6.57;;
43626;SDS011;29217;52.586;13.442;2024-01-11T10:12:12;15.10;;;6.20;;
43626;SDS011;29217;52.586;13.442;2024-01-11T10:14:38;15.90;;;6.70;;
43626;SDS011;29217;52.586;13.442;2024-01-11T10:17:04;17.63;;;7.45;;
43626;SDS011;29217;52.586;13.442;2024-01-11T10:19:31;15.98;;;6.80;;
43626;SDS011;29217;52.586;13.442;2024-01-11T10:21:57;19.88;;;7.35;;
43626;SDS011;29217;52.586;13.442;2024-01-11T10:24:23;17.45;;;5.72;;
43626;SDS011;29217;52.586;13.442;2024-01-11T10:27:00;21.05;;;7.00;;
43626;SDS011;29217;52.586;13.442;2024-01-11T10:29:31;16.23;;;7.03;;
43626;SDS011;29217;52.586;13.442;2024-01-11T10:31:58;22.35;;;6.50;;
43626;SDS011;29217;52.586;13.442;2024-01-11T10:34:23;11.25;;;5.97;;
43626;SDS011;29217;52.586;13.442;2024-01-11T10:36:50;22.77;;;7.75;;
43626;SDS011;29217;52.586;13.442;2024-01-11T10:39:16;14.80;;;6.63;;
43626;SDS011;29217;52.586;13.442;2024-01-11T10:41:48;17.10;;;7.53;;
43626;SDS011;29217;52.586;13.442;2024-01-11T10:44:18;20.67;;;7.13;;
43626;SDS011;29217;52.586;13.442;2024-01-11T10:46:45;16.15;;;7.55;;
43626;SDS011;29217;52.586;13.442;2024-01-11T10:49:11;17.17;;;6.65;;
43626;SDS011;29217;52.586;13.442;2024-01-11T10:51:43;18.40;;;7.78;;
43626;SDS011;29217;52.586;13.442;2024-01-11T10:54:14;19.23;;;8.50;;
43626;SDS011;29217;52.586;13.442;2024-01-11T10:56:40;17.23;;;7.32;;
43626;SDS011;29217;52.586;13.442;2024-01-11T10:59:09;22.15;;;8.20;;
43626;SDS011;29217;52.586;13.442;2024-01-11T11:01:36;21.90;;;8.77;;
43626;SDS011;29217;52.586;13.442;2024-01-11T11:04:04;19.83;;;7.60;;
43626;SDS011;29217;52.586;13.442;2024-01-11T11:06:32;20.42;;;7.43;;
43626;SDS011;29217;52.586;13.442;2024-01-11T11:09:01;20.17;;;6.90;;
43626;SDS011;29217;52.586;13.442;2024-01-11T11:11:30;20.00;;;7.82;;
43626;SDS011;29217;52.586;13.442;2024-01-11T11:13:57;17.27;;;6.55;;
43626;SDS011;29217;52.586;13.442;2024-01-11T11:16:25;25.38;;;7.35;;
43626;SDS011;29217;52.586;13.442;2024-01-11T11:18:54;22.48;;;7.93;;
43626;SDS011;29217;52.586;13.442;2024-01-11T11:21:20;19.27;;;8.10;;
43626;SDS011;29217;52.586;13.442;2024-01-11T11:23:46;21.73;;;7.80;;
43626;SDS011;29217;52.586;13.442;2024-01-11T11:26:15;23.20;;;7.40;;
43626;SDS011;29217;52.586;13.442;2024-01-11T11:28:42;19.02;;;8.15;;
43626;SDS011;29217;52.586;13.442;2024-01-11T11:31:08;20.27;;;8.20;;
43626;SDS011;29217;52.586;13.442;2024-01-11T11:33:36;18.52;;;7.38;;
43626;SDS011;29217;52.586;13.442;2024-01-11T11:36:02;19.35;;;7.65;;
43626;SDS011;29217;52.586;13.442;2024-01-11T11:38:29;21.02;;;7.88;;
43626;SDS011;29217;52.586;13.442;2024-01-11T11:40:56;23.15;;;7.72;;
43626;SDS011;29217;52.586;13.442;2024-01-11T11:43:23;25.23;;;8.70;;
43626;SDS011;29217;52.586;13.442;2024-01-11T11:45:51;22.27;;;8.82;;
43626;SDS011;29217;52.586;13.442;2024-01-11T11:51:11;19.45;;;7.65;;
43626;SDS011;29217;52.586;13.442;2024-01-11T11:53:38;20.83;;;8.60;;
43626;SDS011;29217;52.586;13.442;2024-01-11T11:56:05;22.30;;;9.10;;
43626;SDS011;29217;52.586;13.442;2024-01-11T11:58:32;21.00;;;8.18;;
43626;SDS011;29217;52.586;13.442;2024-01-11T12:00:59;23.27;;;9.35;;
43626;SDS011;29217;52.586;13.442;2024-01-11T12:05:57;26.05;;;8.52;;
43626;SDS011;29217;52.586;13.442;2024-01-11T12:08:24;26.27;;;9.00;;
43626;SDS011;29217;52.586;13.442;2024-01-11T12:10:50;22.08;;;9.65;;
43626;SDS011;29217;52.586;13.442;2024-01-11T12:13:16;26.20;;;9.95;;
43626;SDS011;29217;52.586;13.442;2024-01-11T12:15:42;23.27;;;8.02;;
43626;SDS011;29217;52.586;13.442;2024-01-11T12:18:08;19.48;;;8.30;;
43626;SDS011;29217;52.586;13.442;2024-01-11T12:20:35;28.05;;;8.55;;
43626;SDS011;29217;52.586;13.442;2024-01-11T12:23:00;25.95;;;8.02;;
43626;SDS011;29217;52.586;13.442;2024-01-11T12:25:30;30.30;;;9.45;;
43626;SDS011;29217;52.586;13.442;2024-01-11T12:27:56;24.55;;;7.95;;
43626;SDS011;29217;52.586;13.442;2024-01-11T12:30:23;31.20;;;9.98;;
43626;SDS011;29217;52.586;13.442;2024-01-11T12:32:58;26.20;;;8.85;;
43626;SDS011;29217;52.586;13.442;2024-01-11T12:35:28;29.50;;;8.27;;
43626;SDS011;29217;52.586;13.442;2024-01-11T12:37:55;25.67;;;8.40;;
43626;SDS011;29217;52.586;13.442;2024-01-11T12:40:24;23.42;;;8.68;;
43626;SDS011;29217;52.586;13.442;2024-01-11T12:42:52;26.90;;;8.32;;
43626;SDS011;29217;52.586;13.442;2024-01-11T12:45:18;16.52;;;7.43;;
43626;SDS011;29217;52.586;13.442;2024-01-11T12:47:44;30.42;;;10.50;;
43626;SDS011;29217;52.586;13.442;2024-01-11T12:50:13;30.00;;;9.05;;
43626;SDS011;29217;52.586;13.442;2024-01-11T12:52:38;35.20;;;9.80;;
43626;SDS011;29217;52.586;13.442;2024-01-11T12:55:06;32.58;;;7.53;;
43626;SDS011;29217;52.586;13.442;2024-01-11T12:57:36;20.50;;;8.75;;
43626;SDS011;29217;52.586;13.442;2024-01-11T13:00:11;28.08;;;8.75;;
43626;SDS011;29217;52.586;13.442;2024-01-11T13:02:38;20.60;;;7.57;;
43626;SDS011;29217;52.586;13.442;2024-01-11T13:05:11;17.83;;;6.68;;
43626;SDS011;29217;52.586;13.442;2024-01-11T13:07:37;16.25;;;6.78;;
43626;SDS011;29217;52.586;13.442;2024-01-11T13:10:03;22.35;;;7.18;;
43626;SDS011;29217;52.586;13.442;2024-01-11T13:12:30;19.60;;;7.47;;
43626;SDS011;29217;52.586;13.442;2024-01-11T13:14:56;19.80;;;7.55;;
43626;SDS011;29217;52.586;13.442;2024-01-11T13:17:21;23.50;;;6.97;;
43626;SDS011;29217;52.586;13.442;2024-01-11T13:19:47;20.50;;;6.75;;
43626;SDS011;29217;52.586;13.442;2024-01-11T13:22:13;14.95;;;5.93;;
43626;SDS011;29217;52.586;13.442;2024-01-11T13:24:38;15.68;;;6.57;;
43626;SDS011;29217;52.586;13.442;2024-01-11T13:27:04;21.20;;;7.20;;
43626;SDS011;29217;52.586;13.442;2024-01-11T13:29:29;14.38;;;5.43;;
43626;SDS011;29217;52.586;13.442;2024-01-11T13:31:55;19.75;;;7.32;;
43626;SDS011;29217;52.586;13.442;2024-01-11T13:34:21;13.95;;;6.20;;
43626;SDS011;29217;52.586;13.442;2024-01-11T13:36:46;22.60;;;6.97;;
43626;SDS011;29217;52.586;13.442;2024-01-11T13:39:12;21.25;;;6.82;;
43626;SDS011;29217;52.586;13.442;2024-01-11T13:41:37;17.42;;;6.55;;
43626;SDS011;29217;52.586;13.442;2024-01-11T13:44:05;23.10;;;7.13;;
43626;SDS011;29217;52.586;13.442;2024-01-11T13:46:32;13.85;;;6.25;;
43626;SDS011;29217;52.586;13.442;2024-01-11T13:48:57;17.67;;;6.45;;
43626;SDS011;29217;52.586;13.442;2024-01-11T13:51:23;22.42;;;7.53;;
43626;SDS011;29217;52.586;13.442;2024-01-11T13:53:49;14.05;;;5.53;;
43626;SDS011;29217;52.586;13.442;2024-01-11T13:56:14;21.90;;;7.45;;
43626;SDS011;29217;52.586;13.442;2024-01-11T13:58:40;13.13;;;5.80;;
43626;SDS011;29217;52.586;13.442;2024-01-11T14:01:06;16.90;;;6.28;;
43626;SDS011;29217;52.586;13.442;2024-01-11T14:03:32;12.07;;;5.70;;
43626;SDS011;29217;52.586;13.442;2024-01-11T14:05:58;19.38;;;6.15;;
43626;SDS011;29217;52.586;13.442;2024-01-11T14:08:25;20.30;;;7.25;;
43626;SDS011;29217;52.586;13.442;2024-01-11T14:10:51;16.95;;;6.35;;
43626;SDS011;29217;52.586;13.442;2024-01-11T14:13:17;16.77;;;6.55;;
43626;SDS011;29217;52.586;13.442;2024-01-11T14:15:43;13.05;;;6.40;;
43626;SDS011;29217;52.586;13.442;2024-01-11T14:18:09;17.50;;;6.32;;
43626;SDS011;29217;52.586;13.442;2024-01-11T14:20:35;18.77;;;7.72;;
43626;SDS011;29217;52.586;13.442;2024-01-11T14:23:01;29.77;;;8.30;;